Harrison, Arkansas
Current Conditions -  °F | °C
As of 12:53 AM on Saturday 29 Nov 2014 (Local Time) from KHRO Reporting Station
Clear Clear  
Wind Chill: 50°   Ceiling: Unl
Heat Index: 50°   Visibility: 10mi
Dew Point: 43°   Wind: 8mph
Humidity: 77%   Direction: 110°ESE
Pressure: 29.89"   Gusts: NA
Location:  36.23°N, 93.11°W
Report Text: KHRO 290653Z AUTO 11007KT 10SM CLR 10/06 A2989 RMK AO2 SLP116 T01000061
Loading
Personal Weather Stations






























Interactive Weather Map New forecast layout! Learn more

10-Day Weather Forecast

Advertisements
Track Severe Weather on mobile